Time;durP1;ratioP1;P1;durP2;ratioP2;P2;SDS_P1;SDS_P2;PMS_P1;PMS_P2;Temp;Humidity;BMP_temperature;BMP_pressure;BME280_temperature;BME280_humidity;BME280_pressure;Samples;Min_cycle;Max_cycle;Signal;HPM_P1;HPM_P2
2023/05/23 00:02:07;;;;;;;26.42;15.18;;;17.70;99.90;;;;;;5091272;28;20050;-74
2023/05/23 00:05:11;;;;;;;22.27;15.05;;;17.60;99.90;;;;;;5091532;28;20035;-74
2023/05/23 00:08:15;;;;;;;23.38;15.70;;;17.50;99.90;;;;;;5091344;28;20059;-74
2023/05/23 00:11:22;;;;;;;27.48;16.02;;;17.40;99.90;;;;;;5091362;28;20055;-74
2023/05/23 00:14:26;;;;;;;25.85;15.75;;;17.40;99.90;;;;;;5091650;28;20039;-74
2023/05/23 00:17:30;;;;;;;24.77;15.35;;;17.30;99.90;;;;;;5091675;28;20039;-74
2023/05/23 00:20:35;;;;;;;22.50;15.45;;;17.30;99.90;;;;;;5090975;28;20051;-74
2023/05/23 00:23:42;;;;;;;25.60;15.50;;;17.40;99.90;;;;;;5091488;28;20059;-74
2023/05/23 00:26:46;;;;;;;26.27;16.02;;;17.50;99.90;;;;;;5078747;28;20490;-74
2023/05/23 00:29:50;;;;;;;27.27;15.65;;;17.60;99.90;;;;;;5055692;28;20043;-74
2023/05/23 00:32:54;;;;;;;28.52;17.10;;;17.60;99.90;;;;;;5067313;28;20047;-74
2023/05/23 00:35:59;;;;;;;26.20;16.83;;;17.60;99.90;;;;;;5091172;28;20031;-74
2023/05/23 00:39:03;;;;;;;26.92;16.55;;;17.50;99.90;;;;;;5067333;28;20050;-74
2023/05/23 00:42:07;;;;;;;23.50;15.00;;;17.60;99.90;;;;;;5090804;28;20059;-73
2023/05/23 00:45:12;;;;;;;24.05;14.45;;;17.50;99.90;;;;;;5078652;28;20039;-73
2023/05/23 00:48:17;;;;;;;23.55;15.73;;;17.60;99.90;;;;;;5091180;28;20043;-74
2023/05/23 00:51:21;;;;;;;21.40;15.05;;;17.60;99.90;;;;;;5090879;28;20043;-74
2023/05/23 00:54:29;;;;;;;24.30;15.13;;;17.60;99.90;;;;;;5078456;28;20043;-74
2023/05/23 00:57:39;;;;;;;24.52;15.85;;;17.60;99.90;;;;;;5078636;28;20047;-74
2023/05/23 01:00:48;;;;;;;31.13;15.05;;;17.50;99.90;;;;;;5078385;28;20036;-74
2023/05/23 01:03:52;;;;;;;32.70;14.90;;;17.50;99.90;;;;;;5066904;28;20054;-74
2023/05/23 01:06:56;;;;;;;21.52;15.25;;;17.30;99.90;;;;;;5066721;28;20043;-74
2023/05/23 01:10:00;;;;;;;29.52;15.27;;;17.20;99.90;;;;;;5090705;28;20498;-74
2023/05/23 01:13:26;;;;;;;25.13;15.23;;;17.10;99.90;;;;;;5079043;28;20043;-74
2023/05/23 01:16:56;;;;;;;27.35;16.33;;;17.00;99.90;;;;;;5082069;28;20380;-74
2023/05/23 01:20:11;;;;;;;28.48;16.13;;;16.90;99.90;;;;;;5082001;28;20105;-74
2023/05/23 01:23:37;;;;;;;25.95;16.05;;;16.90;99.90;;;;;;5082254;28;20043;-74
2023/05/23 01:27:03;;;;;;;22.60;15.52;;;16.90;99.90;;;;;;5094829;28;20043;-74
2023/05/23 01:30:10;;;;;;;26.60;15.48;;;17.00;99.90;;;;;;5094251;28;20055;-74
2023/05/23 01:33:16;;;;;;;26.05;15.40;;;16.90;99.90;;;;;;5081961;28;20051;-74
2023/05/23 01:36:20;;;;;;;25.33;16.35;;;16.90;99.90;;;;;;5082070;28;20118;-74
2023/05/23 01:39:24;;;;;;;21.58;15.77;;;16.90;99.90;;;;;;5081602;28;20107;-74
2023/05/23 01:42:28;;;;;;;26.13;16.65;;;16.90;99.90;;;;;;5081918;28;20047;-74
2023/05/23 01:45:33;;;;;;;28.30;15.93;;;16.90;99.90;;;;;;5081673;28;20044;-74
2023/05/23 01:48:38;;;;;;;24.27;14.95;;;16.90;99.90;;;;;;5094300;28;20051;-74
2023/05/23 01:51:42;;;;;;;22.58;15.50;;;16.90;99.90;;;;;;5081693;28;20066;-74
2023/05/23 01:54:47;;;;;;;23.92;15.98;;;16.80;99.90;;;;;;5081415;28;20047;-74
2023/05/23 01:57:55;;;;;;;24.33;15.50;;;16.80;99.90;;;;;;5094209;28;20046;-74
2023/05/23 02:01:00;;;;;;;24.90;14.88;;;16.80;99.90;;;;;;5081355;28;20058;-74
2023/05/23 02:04:04;;;;;;;25.80;14.65;;;16.80;99.90;;;;;;5081356;28;20047;-74
2023/05/23 02:07:08;;;;;;;24.77;16.23;;;16.80;99.90;;;;;;5081148;28;20400;-74
2023/05/23 02:10:12;;;;;;;26.70;16.67;;;16.70;99.90;;;;;;5093506;28;20039;-74
2023/05/23 02:13:16;;;;;;;28.35;17.02;;;16.50;99.90;;;;;;5069795;28;20068;-74
2023/05/23 02:16:22;;;;;;;22.73;15.18;;;16.50;99.90;;;;;;5093449;28;20043;-74
2023/05/23 02:19:26;;;;;;;27.27;16.40;;;16.50;99.90;;;;;;5081151;28;20051;-74
2023/05/23 02:22:30;;;;;;;26.90;16.60;;;16.40;99.90;;;;;;5093560;28;20051;-74
2023/05/23 02:25:34;;;;;;;27.95;16.40;;;;;;;;;;5080242;28;20043;-74
2023/05/23 02:28:38;;;;;;;30.08;17.73;;;16.40;99.90;;;;;;5093446;28;20042;-74
2023/05/23 02:31:42;;;;;;;27.20;17.83;;;16.40;99.90;;;;;;5093342;28;20047;-74
2023/05/23 02:34:49;;;;;;;27.45;16.65;;;16.20;99.90;;;;;;5092417;28;20589;-74
2023/05/23 02:37:53;;;;;;;26.48;16.73;;;15.50;99.90;;;;;;5080590;28;20044;-74
2023/05/23 02:40:57;;;;;;;24.58;17.23;;;16.40;99.90;;;;;;5080602;28;20411;-74
2023/05/23 02:44:01;;;;;;;28.23;17.98;;;16.40;99.90;;;;;;5069351;28;20051;-73
2023/05/23 02:47:05;;;;;;;34.00;17.77;;;17.30;99.90;;;;;;5080560;28;20043;-74
2023/05/23 02:50:10;;;;;;;28.90;17.92;;;16.30;99.90;;;;;;5080604;28;20046;-74
2023/05/23 02:53:15;;;;;;;33.78;17.75;;;16.40;99.90;;;;;;5080432;28;20044;-74
2023/05/23 02:56:21;;;;;;;28.35;16.65;;;16.40;99.90;;;;;;5080465;28;20062;-74
2023/05/23 02:59:25;;;;;;;27.80;17.00;;;16.30;99.90;;;;;;5080149;28;20043;-74
2023/05/23 03:02:29;;;;;;;31.13;17.70;;;16.00;99.90;;;;;;5092521;28;20063;-74
2023/05/23 03:05:33;;;;;;;26.20;17.30;;;17.50;99.90;;;;;;5068889;28;20043;-74
2023/05/23 03:08:37;;;;;;;26.13;16.95;;;18.40;99.90;;;;;;5080210;28;20075;-74
2023/05/23 03:11:42;;;;;;;29.02;17.85;;;16.30;99.90;;;;;;5080120;28;20035;-73
2023/05/23 03:14:46;;;;;;;29.70;17.13;;;16.70;99.90;;;;;;5079828;28;20055;-73
2023/05/23 03:17:50;;;;;;;26.58;17.48;;;16.30;99.90;;;;;;5079768;28;20047;-73
2023/05/23 03:20:54;;;;;;;24.75;16.23;;;16.30;99.90;;;;;;5079903;28;20047;-74
2023/05/23 03:24:00;;;;;;;31.05;17.00;;;16.10;99.90;;;;;;5068159;28;20427;-73
2023/05/23 03:27:04;;;;;;;23.48;16.45;;;16.00;99.90;;;;;;5079947;28;20039;-74
2023/05/23 03:30:09;;;;;;;25.58;16.40;;;16.30;99.90;;;;;;5079776;28;20047;-73
2023/05/23 03:33:13;;;;;;;33.58;17.35;;;16.00;99.90;;;;;;5079681;28;20078;-74
2023/05/23 03:36:17;;;;;;;20.85;16.77;;;16.10;99.90;;;;;;5079887;28;20043;-74
2023/05/23 03:39:22;;;;;;;29.42;16.50;;;16.00;99.90;;;;;;5079295;28;20047;-74
2023/05/23 03:42:27;;;;;;;27.50;17.02;;;16.90;99.90;;;;;;5091936;28;20051;-73
2023/05/23 03:45:32;;;;;;;27.92;16.35;;;15.40;99.90;;;;;;5092056;28;20043;-74
2023/05/23 03:48:38;;;;;;;26.88;16.80;;;15.10;99.90;;;;;;5079696;28;20043;-74
2023/05/23 03:51:42;;;;;;;30.13;17.63;;;15.80;99.90;;;;;;5078937;28;20039;-74
2023/05/23 03:54:46;;;;;;;26.73;16.92;;;15.90;99.90;;;;;;5079434;28;20047;-73
2023/05/23 03:57:50;;;;;;;25.20;17.42;;;16.00;99.90;;;;;;5068007;28;20062;-73
2023/05/23 04:00:55;;;;;;;30.15;16.83;;;15.50;99.90;;;;;;5078875;28;20043;-74
2023/05/23 04:03:59;;;;;;;26.88;15.88;;;16.00;99.90;;;;;;5091623;28;20047;-74
2023/05/23 04:07:08;;;;;;;22.25;15.13;;;16.10;99.90;;;;;;5078972;28;20055;-74
2023/05/23 04:10:13;;;;;;;25.30;14.55;;;16.00;99.90;;;;;;5067678;28;20047;-75
2023/05/23 04:13:19;;;;;;;29.48;15.10;;;16.10;99.90;;;;;;5090767;28;20050;-74
2023/05/23 04:16:24;;;;;;;26.77;15.48;;;16.00;99.90;;;;;;5078815;28;20035;-73
2023/05/23 04:19:28;;;;;;;29.65;15.48;;;17.80;99.90;;;;;;5091165;28;20047;-74
2023/05/23 04:22:32;;;;;;;23.65;14.77;;;18.40;99.90;;;;;;5091132;28;20513;-74
2023/05/23 04:25:36;;;;;;;17.45;13.23;;;16.90;99.90;;;;;;5079080;28;20046;-73
2023/05/23 04:28:47;;;;;;;18.98;14.77;;;15.50;99.90;;;;;;5078719;28;20043;-73
2023/05/23 04:31:51;;;;;;;26.52;15.25;;;16.30;99.90;;;;;;5078399;28;20048;-73
2023/05/23 04:34:56;;;;;;;26.00;15.60;;;16.80;99.90;;;;;;5078988;28;20043;-74
2023/05/23 04:38:02;;;;;;;21.48;13.95;;;17.00;99.90;;;;;;5055522;28;20035;-75
2023/05/23 04:41:11;;;;;;;21.80;12.75;;;17.30;99.90;;;;;;5078647;28;20502;-73
2023/05/23 04:44:56;;;;;;;22.27;14.75;;;17.90;99.90;;;;;;5008838;28;20165;-73
2023/05/23 04:48:16;;;;;;;27.73;14.02;;;18.50;99.90;;;;;;5005255;28;20084;-74
2023/05/23 04:51:21;;;;;;;19.45;13.10;;;18.90;99.90;;;;;;5071139;28;20043;-74
2023/05/23 04:54:31;;;;;;;23.42;13.10;;;19.50;99.90;;;;;;5082846;28;20050;-74
2023/05/23 04:57:38;;;;;;;25.45;13.45;;;19.80;99.30;;;;;;5082996;28;20522;-74
2023/05/23 05:00:43;;;;;;;22.48;13.63;;;20.00;99.00;;;;;;5082066;28;20063;-74
2023/05/23 05:03:47;;;;;;;30.92;14.88;;;19.90;99.00;;;;;;5082552;28;20054;-74
2023/05/23 05:06:52;;;;;;;27.52;14.18;;;20.00;99.10;;;;;;5082465;28;20047;-74
2023/05/23 05:09:56;;;;;;;22.58;14.32;;;20.10;98.90;;;;;;5082208;28;20106;-75
2023/05/23 05:13:01;;;;;;;22.40;13.70;;;20.20;98.60;;;;;;5082271;28;20471;-74
2023/05/23 05:16:11;;;;;;;24.15;17.42;;;20.30;98.50;;;;;;5082164;28;20518;-75
2023/05/23 05:19:15;;;;;;;25.15;14.20;;;20.20;98.80;;;;;;5082073;28;20035;-74
2023/05/23 05:22:19;;;;;;;22.65;12.93;;;20.30;98.70;;;;;;5081969;28;20047;-75
2023/05/23 05:25:23;;;;;;;27.88;14.48;;;20.40;98.90;;;;;;5070584;28;20047;-73
2023/05/23 05:28:27;;;;;;;20.77;14.20;;;20.20;98.30;;;;;;5082571;28;20043;-72
2023/05/23 05:31:31;;;;;;;18.05;12.20;;;20.10;98.90;;;;;;5082257;28;20047;-72
2023/05/23 05:34:36;;;;;;;16.98;11.25;;;20.20;98.40;;;;;;5081982;28;20055;-73
2023/05/23 05:37:41;;;;;;;17.83;12.00;;;20.30;98.50;;;;;;5082005;28;20047;-73
2023/05/23 05:40:46;;;;;;;16.13;11.43;;;20.70;97.70;;;;;;5081965;28;20043;-72
2023/05/23 05:43:50;;;;;;;18.02;11.95;;;20.90;97.70;;;;;;5082096;28;20051;-71
2023/05/23 05:46:55;;;;;;;22.77;12.05;;;21.20;97.50;;;;;;5082139;28;20039;-72
2023/05/23 05:50:00;;;;;;;22.95;13.05;;;21.20;97.20;;;;;;5081693;28;20051;-71
2023/05/23 05:53:04;;;;;;;22.02;13.10;;;21.30;97.60;;;;;;5081767;28;20055;-72
2023/05/23 05:56:08;;;;;;;23.58;13.02;;;21.40;97.00;;;;;;5081400;28;20498;-72
2023/05/23 05:59:13;;;;;;;22.45;12.25;;;21.50;97.40;;;;;;5081419;28;20051;-72
2023/05/23 06:02:17;;;;;;;21.58;11.65;;;21.70;97.30;;;;;;5081186;28;20506;-73
2023/05/23 06:05:22;;;;;;;23.92;12.27;;;21.70;96.40;;;;;;5092731;28;20055;-72
2023/05/23 06:08:27;;;;;;;24.63;12.15;;;21.80;96.20;;;;;;5080940;28;20067;-72
2023/05/23 06:11:31;;;;;;;19.80;11.15;;;22.00;96.30;;;;;;5081188;28;20047;-72
2023/05/23 06:14:35;;;;;;;24.88;12.48;;;22.30;96.00;;;;;;5069971;28;20047;-72
2023/05/23 06:17:39;;;;;;;23.65;11.63;;;22.40;95.60;;;;;;5069424;28;20102;-72
2023/05/23 06:20:43;;;;;;;25.17;13.15;;;22.60;95.50;;;;;;5092533;28;20502;-72
2023/05/23 06:23:51;;;;;;;629.60;67.97;;;22.70;95.60;;;;;;5080897;28;20051;-73
2023/05/23 06:26:55;;;;;;;75.22;16.10;;;22.90;95.00;;;;;;5080837;28;20388;-72
2023/05/23 06:29:59;;;;;;;22.50;15.60;;;23.10;95.30;;;;;;5080233;28;20051;-69
2023/05/23 06:33:03;;;;;;;28.23;15.00;;;23.40;94.70;;;;;;5091754;28;20039;-67
2023/05/23 06:36:07;;;;;;;23.20;15.35;;;23.60;94.40;;;;;;5092929;28;20043;-68
2023/05/23 06:39:11;;;;;;;28.85;14.85;;;23.80;93.80;;;;;;5092636;28;20043;-68
2023/05/23 06:42:15;;;;;;;30.77;15.43;;;24.00;94.00;;;;;;5092838;28;20051;-68
2023/05/23 06:45:34;;;;;;;39.85;16.50;;;24.20;93.80;;;;;;5080706;28;20162;-68
2023/05/23 06:48:38;;;;;;;32.03;17.30;;;24.50;93.50;;;;;;5092721;28;20538;-68
2023/05/23 06:51:42;;;;;;;36.35;15.52;;;24.60;93.40;;;;;;5080548;28;20051;-68
2023/05/23 06:54:46;;;;;;;31.83;16.05;;;24.60;93.40;;;;;;5080085;28;20039;-69
2023/05/23 06:57:50;;;;;;;36.55;15.85;;;24.60;93.40;;;;;;5080566;28;20059;-68
2023/05/23 07:00:56;;;;;;;23.67;15.23;;;24.70;93.50;;;;;;5079919;28;20043;-67
2023/05/23 07:04:03;;;;;;;32.38;17.15;;;24.90;93.40;;;;;;5080122;28;20046;-68
2023/05/23 07:07:07;;;;;;;28.40;16.73;;;25.00;93.10;;;;;;5079933;28;20090;-69
2023/05/23 07:10:11;;;;;;;26.33;16.00;;;25.10;93.00;;;;;;5068492;28;20059;-68
2023/05/23 07:13:15;;;;;;;31.25;14.90;;;25.20;92.90;;;;;;5091989;28;20046;-68
2023/05/23 07:16:20;;;;;;;25.58;16.55;;;25.40;92.60;;;;;;5080215;28;20043;-70
2023/05/23 07:19:38;;;;;;;27.67;14.40;;;25.50;92.10;;;;;;5079937;28;20051;-67
2023/05/23 07:22:44;;;;;;;28.02;14.85;;;25.50;92.20;;;;;;5079240;28;20075;-68
2023/05/23 07:25:49;;;;;;;26.98;14.02;;;25.70;92.00;;;;;;5079779;28;20062;-69
2023/05/23 07:29:02;;;;;;;28.55;12.30;;;25.80;91.50;;;;;;5079795;28;20063;-68
2023/05/23 07:32:06;;;;;;;24.63;12.98;;;25.70;91.30;;;;;;5079429;28;20055;-67
2023/05/23 07:35:10;;;;;;;19.70;12.57;;;25.80;91.40;;;;;;5090849;28;20047;-69
2023/05/23 07:38:14;;;;;;;28.85;13.98;;;26.00;91.80;;;;;;5091831;28;20047;-68
2023/05/23 07:41:18;;;;;;;20.13;12.60;;;26.00;91.30;;;;;;5067826;28;20133;-73
2023/05/23 07:44:22;;;;;;;22.15;10.27;;;25.70;91.20;;;;;;5079362;28;20404;-70
2023/05/23 07:47:26;;;;;;;23.85;11.65;;;25.80;90.80;;;;;;5079155;28;20384;-66
2023/05/23 07:50:30;;;;;;;21.70;10.05;;;26.00;90.50;;;;;;5078255;28;20051;-66
2023/05/23 07:53:38;;;;;;;16.60;9.23;;;25.80;90.10;;;;;;5078561;28;20043;-66
2023/05/23 07:56:43;;;;;;;17.83;9.68;;;25.70;90.10;;;;;;5079048;28;20058;-67
2023/05/23 07:59:48;;;;;;;22.77;10.75;;;25.80;90.10;;;;;;5079211;28;20047;-67
2023/05/23 08:02:53;;;;;;;17.77;9.25;;;25.90;90.00;;;;;;5067511;28;20066;-66
2023/05/23 08:06:03;;;;;;;17.10;9.33;;;26.20;90.40;;;;;;5079000;28;20047;-66
2023/05/23 08:09:08;;;;;;;14.75;8.57;;;26.40;90.20;;;;;;5078937;28;20537;-66
2023/05/23 08:12:17;;;;;;;12.95;7.78;;;26.60;89.50;;;;;;5079192;28;20047;-65
2023/05/23 08:15:23;;;;;;;17.70;9.35;;;26.70;88.50;;;;;;5091007;28;20054;-67
2023/05/23 08:18:32;;;;;;;13.80;8.80;;;26.60;87.60;;;;;;5079116;28;20110;-67
2023/05/23 08:21:35;;;;;;;15.77;7.88;;;26.50;87.20;;;;;;5090128;28;20118;-66
2023/05/23 08:24:40;;;;;;;16.08;8.10;;;26.50;88.00;;;;;;5090600;28;20051;-67
2023/05/23 08:27:44;;;;;;;16.70;7.50;;;26.70;86.40;;;;;;5091375;28;20047;-67
2023/05/23 08:31:02;;;;;;;14.93;7.43;;;26.70;84.30;;;;;;5078684;28;20387;-66
2023/05/23 08:34:07;;;;;;;15.05;6.70;;;26.60;84.90;;;;;;5078774;28;20043;-67
2023/05/23 08:37:13;;;;;;;19.33;7.00;;;26.70;86.10;;;;;;5079026;28;20043;-67
2023/05/23 08:40:22;;;;;;;18.17;6.70;;;26.70;84.20;;;;;;5078921;28;20392;-67
2023/05/23 08:43:34;;;;;;;16.40;7.80;;;26.70;85.20;;;;;;5091109;28;20051;-66
2023/05/23 08:46:43;;;;;;;12.80;6.43;;;26.80;83.20;;;;;;5090894;28;20050;-67
2023/05/23 08:49:48;;;;;;;12.93;6.45;;;26.90;83.30;;;;;;5078481;28;20047;-66
2023/05/23 08:52:56;;;;;;;9.52;6.40;;;26.90;81.60;;;;;;5078644;28;20039;-66
2023/05/23 08:56:02;;;;;;;13.32;6.28;;;27.00;82.90;;;;;;5078279;28;20102;-67
2023/05/23 08:59:14;;;;;;;12.73;5.95;;;27.10;82.10;;;;;;5078492;28;20063;-67
2023/05/23 09:02:21;;;;;;;17.90;6.78;;;27.10;82.30;;;;;;5078294;28;20051;-66
2023/05/23 09:05:26;;;;;;;14.77;7.30;;;27.20;82.00;;;;;;5078852;28;20046;-67
2023/05/23 09:08:31;;;;;;;13.32;6.90;;;27.10;80.20;;;;;;5078110;28;20063;-64
2023/05/23 09:11:37;;;;;;;12.25;6.75;;;26.80;80.50;;;;;;5078463;28;20073;-66
2023/05/23 09:14:50;;;;;;;11.18;6.80;;;26.80;82.30;;;;;;5078723;28;20051;-67
2023/05/23 09:18:00;;;;;;;11.82;6.28;;;26.90;83.80;;;;;;5078623;28;20051;-71
2023/05/23 09:21:14;;;;;;;10.52;6.05;;;27.10;83.20;;;;;;5079101;28;20042;-69
2023/05/23 09:24:35;;;;;;;19.98;6.75;;;27.10;82.10;;;;;;5078454;28;20055;-69
2023/05/23 09:27:46;;;;;;;10.88;5.47;;;27.10;81.80;;;;;;5078389;28;20408;-68
2023/05/23 09:31:03;;;;;;;12.10;6.20;;;27.10;82.80;;;;;;5078337;28;20051;-72
2023/05/23 09:34:09;;;;;;;15.60;5.50;;;27.10;81.20;;;;;;5077977;28;20043;-71
2023/05/23 09:37:17;;;;;;;9.15;5.05;;;27.20;82.10;;;;;;5081812;28;20649;-72
2023/05/23 09:40:31;;;;;;;15.45;5.80;;;27.20;81.00;;;;;;5082081;28;20408;-72
2023/05/23 09:43:57;;;;;;;10.65;6.00;;;27.30;79.90;;;;;;5081731;28;20051;-73
2023/05/23 09:47:06;;;;;;;8.63;5.15;;;27.40;80.50;;;;;;5093923;28;20051;-70
2023/05/23 09:50:15;;;;;;;10.98;5.82;;;27.50;79.00;;;;;;5081793;28;20051;-73
2023/05/23 09:53:21;;;;;;;9.98;5.35;;;27.50;80.00;;;;;;5094225;28;20047;-76
2023/05/23 09:56:30;;;;;;;9.48;5.90;;;27.60;80.00;;;;;;5093977;28;20043;-72
2023/05/23 09:59:40;;;;;;;9.15;5.90;;;27.60;80.30;;;;;;5081216;28;20403;-73
2023/05/23 10:03:04;;;;;;;8.75;5.93;;;27.70;78.80;;;;;;5081259;28;20051;-74
2023/05/23 10:06:27;;;;;;;11.95;6.03;;;27.70;78.40;;;;;;5093731;28;20039;-76
2023/05/23 10:09:37;;;;;;;9.38;5.07;;;27.70;76.00;;;;;;5069626;28;20411;-73
2023/05/23 10:12:52;;;;;;;11.65;5.55;;;27.70;76.70;;;;;;5094152;28;20043;-80
2023/05/23 10:16:18;;;;;;;9.45;5.07;;;27.80;75.90;;;;;;5093994;28;20067;-73
2023/05/23 10:19:33;;;;;;;9.13;5.40;;;27.80;77.20;;;;;;5069649;28;20043;-70
2023/05/23 10:22:39;;;;;;;10.02;5.38;;;27.80;76.30;;;;;;5081218;28;20410;-74
2023/05/23 10:25:47;;;;;;;9.30;5.70;;;27.80;74.20;;;;;;5093812;28;20067;-78
2023/05/23 10:28:52;;;;;;;10.82;5.45;;;27.70;74.80;;;;;;5092496;28;20044;-69
2023/05/23 10:31:57;;;;;;;13.50;5.80;;;27.80;74.30;;;;;;5080744;28;20047;-75
2023/05/23 10:35:25;;;;;;;9.80;5.72;;;27.70;74.30;;;;;;5080993;28;20043;-72
2023/05/23 10:38:38;;;;;;;11.20;6.00;;;27.70;76.30;;;;;;5093477;28;20039;-78
2023/05/23 10:42:07;;;;;;;8.98;6.78;;;27.80;78.60;;;;;;5092438;28;20051;-78
2023/05/23 10:45:20;;;;;;;17.52;7.72;;;27.80;82.40;;;;;;5092527;28;20051;-73
2023/05/23 10:48:27;;;;;;;12.57;7.30;;;27.70;82.90;;;;;;5090375;28;20066;-75
2023/05/23 10:51:37;;;;;;;14.45;7.15;;;27.70;83.20;;;;;;5093093;28;20043;-75
2023/05/23 10:54:59;;;;;;;16.27;7.20;;;27.70;83.40;;;;;;5093142;28;20346;-69
2023/05/23 10:58:09;;;;;;;13.55;7.15;;;27.70;83.60;;;;;;5093457;28;20506;-74
2023/05/23 11:01:18;;;;;;;11.43;6.28;;;27.60;82.90;;;;;;5093632;28;20055;-75
2023/05/23 11:04:27;;;;;;;18.25;7.30;;;27.50;82.60;;;;;;5080557;28;20055;-70
2023/05/23 11:07:32;;;;;;;11.30;6.75;;;27.50;83.00;;;;;;5092538;28;20051;-74
2023/05/23 11:10:52;;;;;;;13.93;7.78;;;27.50;82.70;;;;;;5079967;28;20511;-72
2023/05/23 11:13:59;;;;;;;11.65;6.28;;;27.40;82.70;;;;;;5092505;28;20054;-76
2023/05/23 11:17:18;;;;;;;18.25;7.93;;;27.30;83.50;;;;;;5079978;28;20051;-75
2023/05/23 11:20:27;;;;;;;14.65;6.75;;;27.30;84.10;;;;;;5092225;28;20035;-75
2023/05/23 11:23:41;;;;;;;17.88;7.65;;;27.30;84.70;;;;;;5091912;28;20514;-75
2023/05/23 11:27:02;;;;;;;13.90;7.63;;;27.30;84.70;;;;;;5091844;28;20174;-74
2023/05/23 11:30:12;;;;;;;13.43;7.32;;;27.30;84.00;;;;;;5091643;28;20047;-73
2023/05/23 11:33:17;;;;;;;9.10;6.68;;;27.30;83.30;;;;;;5092373;28;20380;-75
2023/05/23 11:36:21;;;;;;;17.17;7.03;;;27.30;83.60;;;;;;5079659;28;20522;-75
2023/05/23 11:39:25;;;;;;;11.10;6.78;;;27.20;83.00;;;;;;5091715;28;20380;-74
2023/05/23 11:42:29;;;;;;;9.88;6.38;;;27.20;82.80;;;;;;5068114;28;20054;-73
2023/05/23 11:45:35;;;;;;;19.83;7.15;;;27.30;83.40;;;;;;5091983;28;20514;-75
2023/05/23 11:48:47;;;;;;;11.63;6.47;;;27.30;83.40;;;;;;5091796;28;20399;-75
2023/05/23 11:51:51;;;;;;;15.88;7.68;;;27.30;83.50;;;;;;5092150;28;20435;-74
2023/05/23 11:54:56;;;;;;;17.88;7.30;;;27.30;83.30;;;;;;5091624;28;20047;-74
2023/05/23 11:58:00;;;;;;;28.70;8.73;;;27.30;82.70;;;;;;5091840;28;20063;-74
2023/05/23 12:01:06;;;;;;;11.30;7.45;;;27.20;83.00;;;;;;5091918;28;20043;-74
2023/05/23 12:04:11;;;;;;;12.52;7.88;;;27.20;83.20;;;;;;5091667;28;20055;-77
2023/05/23 12:07:20;;;;;;;14.20;7.43;;;27.10;83.40;;;;;;5067489;28;20055;-75
2023/05/23 12:10:27;;;;;;;14.88;7.38;;;27.10;84.10;;;;;;5092575;28;20043;-79
2023/05/23 12:13:31;;;;;;;16.33;7.32;;;27.10;84.00;;;;;;5092979;28;20056;-75
2023/05/23 12:16:35;;;;;;;11.73;6.65;;;27.00;84.70;;;;;;5067621;28;20054;-76
2023/05/23 12:19:44;;;;;;;7.57;5.60;;;27.00;84.70;;;;;;5090882;28;20039;-76
2023/05/23 12:22:48;;;;;;;14.80;7.30;;;27.00;83.90;;;;;;5091139;28;20042;-77
2023/05/23 12:25:54;;;;;;;11.15;6.38;;;27.00;83.30;;;;;;5090702;28;20039;-77
2023/05/23 12:28:59;;;;;;;11.70;6.20;;;26.90;83.60;;;;;;5092070;28;20039;-77
2023/05/23 12:32:05;;;;;;;11.60;6.32;;;26.90;83.50;;;;;;5068602;28;20575;-78
2023/05/23 12:35:15;;;;;;;13.63;7.15;;;26.90;83.20;;;;;;5092517;28;20517;-74
2023/05/23 12:38:22;;;;;;;9.40;5.95;;;26.90;82.70;;;;;;5092005;28;20035;-76
2023/05/23 12:41:26;;;;;;;9.00;5.72;;;26.80;82.60;;;;;;5092334;28;20510;-75
2023/05/23 12:44:30;;;;;;;11.63;6.30;;;26.70;82.40;;;;;;5079782;28;20047;-75
2023/05/23 12:47:34;;;;;;;15.35;6.43;;;26.70;82.90;;;;;;5092169;28;20051;-76
2023/05/23 12:50:39;;;;;;;11.88;6.55;;;26.60;82.00;;;;;;5091545;28;20416;-74
2023/05/23 12:53:43;;;;;;;14.20;6.40;;;26.60;82.50;;;;;;5091684;28;20051;-77
2023/05/23 12:56:47;;;;;;;11.02;6.68;;;26.50;83.80;;;;;;5091398;28;20199;-78
2023/05/23 12:59:51;;;;;;;14.18;6.65;;;26.50;82.90;;;;;;5091380;28;20047;-73
2023/05/23 13:02:55;;;;;;;13.32;6.00;;;26.50;83.80;;;;;;5079250;28;20051;-76
2023/05/23 13:05:59;;;;;;;8.48;6.32;;;26.40;83.90;;;;;;5091617;28;20039;-74
2023/05/23 13:09:03;;;;;;;12.70;6.38;;;26.40;84.20;;;;;;5091555;28;20051;-75
2023/05/23 13:12:08;;;;;;;17.42;7.45;;;26.50;84.00;;;;;;5095582;28;20490;-74
2023/05/23 13:15:12;;;;;;;10.13;6.53;;;26.40;83.50;;;;;;5095928;28;20047;-72
2023/05/23 13:18:16;;;;;;;12.82;6.85;;;26.40;84.10;;;;;;5094034;28;20051;-73
2023/05/23 13:21:20;;;;;;;12.25;6.72;;;26.30;84.00;;;;;;5093861;28;20043;-74
2023/05/23 13:24:25;;;;;;;13.70;6.72;;;26.30;84.50;;;;;;5082453;28;20051;-75
2023/05/23 13:27:29;;;;;;;6.93;5.75;;;26.30;85.00;;;;;;5082657;28;20039;-74
2023/05/23 13:30:33;;;;;;;13.45;7.47;;;26.30;85.40;;;;;;5095122;28;20499;-73
2023/05/23 13:33:37;;;;;;;11.82;6.55;;;26.30;85.50;;;;;;5095459;28;20043;-74
2023/05/23 13:36:41;;;;;;;11.38;6.20;;;26.20;84.10;;;;;;5083761;28;20047;-77
2023/05/23 13:39:45;;;;;;;19.00;6.95;;;26.20;83.80;;;;;;5098863;28;20046;-82
2023/05/23 13:42:50;;;;;;;15.73;6.20;;;26.20;84.30;;;;;;5095686;28;20390;-78
2023/05/23 13:45:55;;;;;;;14.98;6.20;;;26.20;84.50;;;;;;5096932;28;20047;-77
2023/05/23 13:48:59;;;;;;;12.93;5.88;;;26.20;83.80;;;;;;5096239;28;20043;-76
2023/05/23 13:52:03;;;;;;;13.02;5.75;;;26.20;83.50;;;;;;5095654;28;20047;-81
2023/05/23 13:55:08;;;;;;;8.38;5.50;;;26.20;83.00;;;;;;5094767;28;20039;-70
2023/05/23 13:58:12;;;;;;;12.57;6.13;;;26.20;82.90;;;;;;5094682;28;20051;-75
2023/05/23 14:01:16;;;;;;;16.23;7.38;;;26.30;82.30;;;;;;5094603;28;20043;-78
2023/05/23 14:04:21;;;;;;;10.30;5.75;;;26.30;82.00;;;;;;5094958;28;20411;-75
2023/05/23 14:07:26;;;;;;;7.97;6.43;;;26.30;82.30;;;;;;5096704;28;20053;-81
2023/05/23 14:10:34;;;;;;;7.85;6.15;;;26.30;82.30;;;;;;5094185;28;20039;-77
2023/05/23 14:13:39;;;;;;;17.02;7.15;;;26.40;82.50;;;;;;5095023;28;20043;-80
2023/05/23 14:16:43;;;;;;;10.63;6.30;;;26.40;82.70;;;;;;5094090;28;20043;-75
2023/05/23 14:19:47;;;;;;;10.00;6.53;;;26.40;83.10;;;;;;5094645;28;20403;-74
2023/05/23 14:22:51;;;;;;;15.40;6.38;;;26.50;83.10;;;;;;5092998;28;20109;-74
2023/05/23 14:25:55;;;;;;;17.42;6.55;;;26.50;82.90;;;;;;5081859;28;20039;-76
2023/05/23 14:29:00;;;;;;;11.82;5.80;;;26.50;82.40;;;;;;5081239;28;20047;-74
2023/05/23 14:32:04;;;;;;;13.10;6.13;;;26.50;82.40;;;;;;5094697;28;20396;-78
2023/05/23 14:35:11;;;;;;;7.95;5.72;;;26.50;82.10;;;;;;5094112;28;20039;-81
2023/05/23 14:38:15;;;;;;;12.73;6.10;;;26.50;82.20;;;;;;5081088;28;20043;-73
2023/05/23 14:41:21;;;;;;;8.20;5.65;;;26.50;81.60;;;;;;5093477;28;20050;-72
2023/05/23 14:44:26;;;;;;;21.50;7.18;;;26.50;80.80;;;;;;5080674;28;20059;-75
2023/05/23 14:47:31;;;;;;;13.45;6.22;;;26.50;81.40;;;;;;5093229;28;20047;-74
2023/05/23 14:50:35;;;;;;;11.52;6.38;;;26.50;82.00;;;;;;5092127;28;20063;-75
2023/05/23 14:53:39;;;;;;;8.63;6.00;;;26.50;81.60;;;;;;5069814;28;20043;-76
2023/05/23 14:56:43;;;;;;;15.45;6.18;;;26.40;81.00;;;;;;5093534;28;20503;-75
2023/05/23 14:59:47;;;;;;;11.43;6.38;;;26.30;80.50;;;;;;5069418;28;20051;-74
2023/05/23 15:02:51;;;;;;;7.35;4.72;;;26.20;80.70;;;;;;5092593;28;20064;-75
2023/05/23 15:05:55;;;;;;;12.05;5.63;;;26.20;81.20;;;;;;5093296;28;20051;-77
2023/05/23 15:08:59;;;;;;;11.38;5.78;;;26.20;82.30;;;;;;5092705;28;20411;-76
2023/05/23 15:12:04;;;;;;;12.07;5.90;;;26.10;82.20;;;;;;5093056;28;20051;-76
2023/05/23 15:15:08;;;;;;;13.77;6.05;;;26.10;81.80;;;;;;5092748;28;20051;-75
2023/05/23 15:18:13;;;;;;;10.20;4.70;;;26.10;82.00;;;;;;5092714;28;20106;-75
2023/05/23 15:21:17;;;;;;;11.10;5.63;;;26.00;82.20;;;;;;5091711;28;20047;-76
2023/05/23 15:24:21;;;;;;;11.50;5.78;;;25.90;82.00;;;;;;5092800;28;20055;-76
2023/05/23 15:27:25;;;;;;;18.98;6.00;;;25.90;81.60;;;;;;5092460;28;20217;-76
2023/05/23 15:30:29;;;;;;;9.30;5.47;;;25.80;81.50;;;;;;5080199;28;20055;-75
2023/05/23 15:33:33;;;;;;;10.35;5.50;;;25.70;81.70;;;;;;5092313;28;20403;-75
2023/05/23 15:36:39;;;;;;;12.10;5.57;;;25.60;81.50;;;;;;5092181;28;20426;-74
2023/05/23 15:39:43;;;;;;;10.93;5.60;;;25.50;81.80;;;;;;5080343;28;20043;-74
2023/05/23 15:42:47;;;;;;;12.10;5.72;;;25.40;81.90;;;;;;5080084;28;20047;-75
2023/05/23 15:45:51;;;;;;;15.48;6.07;;;25.40;81.80;;;;;;5092351;28;20046;-76
2023/05/23 15:48:58;;;;;;;12.35;5.40;;;25.40;82.10;;;;;;5068098;28;20043;-76
2023/05/23 15:52:02;;;;;;;7.93;5.20;;;25.30;82.30;;;;;;5076592;28;20043;-77
2023/05/23 15:55:07;;;;;;;20.45;7.97;;;25.30;82.20;;;;;;5090222;28;20070;-76